createdAt,value
2019-03-28T00:02:18.839Z,10.23
2019-03-28T00:07:26.187Z,9.75
2019-03-28T00:12:33.609Z,9.33
2019-03-28T00:17:41.023Z,9.60
2019-03-28T00:23:10.729Z,9.38
2019-03-28T00:28:18.137Z,9.40
2019-03-28T00:33:25.480Z,9.23
2019-03-28T00:38:32.663Z,8.50
2019-03-28T00:43:40.031Z,9.05
2019-03-28T00:48:47.315Z,8.43
2019-03-28T00:53:54.826Z,9.80
2019-03-28T00:59:02.234Z,10.20
2019-03-28T01:04:09.582Z,9.25
2019-03-28T01:09:17.034Z,9.63
2019-03-28T01:14:24.434Z,10.45
2019-03-28T01:19:31.853Z,9.25
2019-03-28T01:24:39.273Z,10.35
2019-03-28T01:29:46.629Z,10.55
2019-03-28T01:34:53.820Z,11.05
2019-03-28T01:40:01.230Z,10.00
2019-03-28T01:45:08.880Z,9.73
2019-03-28T01:50:16.371Z,11.05
2019-03-28T01:55:23.741Z,11.12
2019-03-28T02:00:31.151Z,11.55
2019-03-28T02:05:38.581Z,12.20
2019-03-28T02:10:46.126Z,13.28
2019-03-28T02:15:55.334Z,13.88
2019-03-28T02:21:02.745Z,14.05
2019-03-28T02:26:10.094Z,13.93
2019-03-28T02:31:17.474Z,15.23
2019-03-28T02:36:24.909Z,14.75
2019-03-28T02:41:32.163Z,16.15
2019-03-28T02:46:39.494Z,17.07
2019-03-28T02:51:46.837Z,16.82
2019-03-28T02:56:54.185Z,16.75
2019-03-28T03:02:02.698Z,18.32
2019-03-28T03:07:10.042Z,17.98
2019-03-28T03:12:17.488Z,18.02
2019-03-28T03:17:24.848Z,19.00
2019-03-28T03:22:32.120Z,17.42
2019-03-28T03:27:56.380Z,19.25
2019-03-28T03:32:48.904Z,18.98
2019-03-28T03:37:56.326Z,18.73
2019-03-28T03:43:03.792Z,19.02
2019-03-28T03:48:12.012Z,19.05
2019-03-28T03:53:19.670Z,19.23
2019-03-28T03:58:26.919Z,20.80
2019-03-28T04:03:34.374Z,20.02
2019-03-28T04:08:41.701Z,20.30
2019-03-28T04:13:48.985Z,21.33
2019-03-28T04:18:56.377Z,18.85
2019-03-28T04:24:03.644Z,20.45
2019-03-28T04:29:11.072Z,21.50
2019-03-28T04:34:18.250Z,20.90
2019-03-28T04:39:25.760Z,21.68
2019-03-28T04:44:33.024Z,21.57
2019-03-28T04:49:40.426Z,20.85
2019-03-28T04:54:47.773Z,22.13
2019-03-28T05:00:05.858Z,22.02
2019-03-28T05:05:13.394Z,20.97
2019-03-28T05:10:20.909Z,22.30
2019-03-28T05:15:28.335Z,21.42
2019-03-28T05:20:35.760Z,23.38
2019-03-28T05:25:43.132Z,24.10
2019-03-28T05:30:50.548Z,21.95
2019-03-28T05:35:57.809Z,22.45
2019-03-28T05:41:06.251Z,23.18
2019-03-28T05:46:13.696Z,24.23
2019-03-28T05:51:21.867Z,24.80
2019-03-28T05:56:29.310Z,26.82
2019-03-28T06:01:36.719Z,25.50
2019-03-28T06:06:44.328Z,22.82
2019-03-28T06:11:53.072Z,23.50
2019-03-28T06:17:00.572Z,22.42
2019-03-28T06:22:07.914Z,24.37
2019-03-28T06:27:15.346Z,23.95
2019-03-28T06:32:22.748Z,22.67
2019-03-28T06:37:30.070Z,24.18
2019-03-28T06:42:37.260Z,25.90
2019-03-28T06:47:44.674Z,25.05
2019-03-28T06:52:52.020Z,24.82
2019-03-28T06:57:59.369Z,24.40
2019-03-28T07:03:07.018Z,24.95
2019-03-28T07:08:14.353Z,24.65
2019-03-28T07:13:21.704Z,25.32
2019-03-28T07:18:29.117Z,28.23
2019-03-28T07:23:36.398Z,25.30
2019-03-28T07:28:43.797Z,24.75
2019-03-28T07:33:51.153Z,24.30
2019-03-28T07:38:58.703Z,24.12
2019-03-28T07:44:06.083Z,23.27
2019-03-28T07:49:13.437Z,21.12
2019-03-28T07:54:20.918Z,21.73
2019-03-28T07:59:28.196Z,21.07
2019-03-28T08:04:35.616Z,21.80
2019-03-28T08:09:43.083Z,23.35
2019-03-28T08:14:50.574Z,21.73
2019-03-28T08:19:58.011Z,21.48
2019-03-28T08:25:09.496Z,21.30
2019-03-28T08:30:19.059Z,20.50
2019-03-28T08:35:25.682Z,19.85
2019-03-28T08:40:42.059Z,18.35
2019-03-28T08:45:49.420Z,18.52
2019-03-28T08:50:56.839Z,19.95
2019-03-28T08:56:04.258Z,18.80
2019-03-28T09:01:11.721Z,20.00
2019-03-28T09:06:19.083Z,19.82
2019-03-28T09:11:26.539Z,19.85
2019-03-28T09:16:33.898Z,20.30
2019-03-28T09:21:41.408Z,19.30
2019-03-28T09:26:48.818Z,19.12
2019-03-28T09:31:56.259Z,18.05
2019-03-28T09:37:03.686Z,18.25
2019-03-28T09:42:11.129Z,20.12
2019-03-28T09:47:18.556Z,19.23
2019-03-28T09:52:26.007Z,20.10
2019-03-28T09:57:46.302Z,20.50
2019-03-28T10:02:53.638Z,19.87
2019-03-28T10:08:00.916Z,20.02
2019-03-28T10:13:08.311Z,20.72
2019-03-28T10:18:15.757Z,22.17
2019-03-28T10:23:23.200Z,22.05
2019-03-28T10:28:30.411Z,20.80
2019-03-28T10:33:37.968Z,22.02
2019-03-28T10:38:45.400Z,20.08
2019-03-28T10:43:52.833Z,21.15
2019-03-28T10:49:00.163Z,22.40
2019-03-28T10:54:19.466Z,22.13
2019-03-28T10:59:23.545Z,22.22
2019-03-28T11:04:27.008Z,22.27
2019-03-28T11:09:34.649Z,21.87
2019-03-28T11:14:42.278Z,20.23
2019-03-28T11:19:49.700Z,22.52
2019-03-28T11:24:57.187Z,22.02
2019-03-28T11:30:06.679Z,20.77
2019-03-28T11:35:14.610Z,21.25
2019-03-28T11:40:24.514Z,20.77
2019-03-28T11:45:31.179Z,20.75
2019-03-28T11:50:38.527Z,22.17
2019-03-28T11:55:48.900Z,24.85
2019-03-28T12:00:56.039Z,23.95
2019-03-28T12:06:03.316Z,24.30
2019-03-28T12:11:10.760Z,23.18
2019-03-28T12:16:18.110Z,19.75
2019-03-28T12:21:25.447Z,16.93
2019-03-28T12:26:32.881Z,17.37
2019-03-28T12:31:40.260Z,18.60
2019-03-28T12:36:47.797Z,19.48
2019-03-28T12:41:55.140Z,18.25
2019-03-28T12:47:02.423Z,17.12
2019-03-28T12:52:09.768Z,17.40
2019-03-28T12:57:17.099Z,17.00
2019-03-28T13:02:31.369Z,14.00
2019-03-28T13:07:33.511Z,14.55
2019-03-28T13:12:40.950Z,14.98
2019-03-28T13:17:48.532Z,15.35
2019-03-28T13:22:55.946Z,14.55
2019-03-28T13:28:03.308Z,16.45
2019-03-28T13:33:10.747Z,15.90
2019-03-28T13:38:18.125Z,16.48
2019-03-28T13:43:25.490Z,15.20
2019-03-28T13:48:32.836Z,13.80
2019-03-28T13:53:40.267Z,14.18
2019-03-28T13:58:47.572Z,13.15
2019-03-28T14:03:54.852Z,13.78
2019-03-28T14:09:02.275Z,12.45
2019-03-28T14:14:11.634Z,12.28
2019-03-28T14:19:19.183Z,11.93
2019-03-28T14:24:26.662Z,12.88
2019-03-28T14:29:34.272Z,11.05
2019-03-28T14:34:41.723Z,11.90
2019-03-28T14:39:49.481Z,13.03
2019-03-28T14:44:58.103Z,12.68
2019-03-28T14:50:06.267Z,12.68
2019-03-28T14:55:13.972Z,11.40
2019-03-28T15:00:48.085Z,11.50
2019-03-28T15:05:55.804Z,12.13
2019-03-28T15:11:03.286Z,12.05
2019-03-28T15:16:10.702Z,12.55
2019-03-28T15:21:22.878Z,11.38
2019-03-28T15:26:31.587Z,12.30
2019-03-28T15:31:39.051Z,11.73
2019-03-28T15:36:46.793Z,13.10
2019-03-28T15:41:54.286Z,12.40
2019-03-28T15:47:01.644Z,12.15
2019-03-28T15:52:09.097Z,14.35
2019-03-28T15:57:16.514Z,13.95
2019-03-28T16:02:24.525Z,15.05
2019-03-28T16:07:33.397Z,16.00
2019-03-28T16:12:42.110Z,15.85
2019-03-28T16:17:49.458Z,15.35
2019-03-28T16:22:56.963Z,14.28
2019-03-28T16:28:04.656Z,14.55
2019-03-28T16:33:12.092Z,13.72
2019-03-28T16:38:19.653Z,13.75
2019-03-28T16:43:27.315Z,13.43
2019-03-28T16:48:34.663Z,14.03
2019-03-28T16:53:41.857Z,12.23
2019-03-28T16:58:49.220Z,13.48
2019-03-28T17:03:56.660Z,12.70
2019-03-28T17:09:06.171Z,12.78
2019-03-28T17:14:13.835Z,12.63
2019-03-28T17:19:23.360Z,13.05
2019-03-28T17:24:30.836Z,12.55
2019-03-28T17:29:38.750Z,12.07
2019-03-28T17:34:46.182Z,13.03
2019-03-28T17:39:53.475Z,13.88
2019-03-28T17:45:00.788Z,12.93
2019-03-28T17:50:09.157Z,13.62
2019-03-28T17:55:19.603Z,14.35
2019-03-28T18:00:28.219Z,12.80
2019-03-28T18:05:35.603Z,11.93
2019-03-28T18:10:43.105Z,13.43
2019-03-28T18:15:51.007Z,10.90
2019-03-28T18:20:58.616Z,11.78
2019-03-28T18:26:06.118Z,11.48
2019-03-28T18:31:13.593Z,11.75
2019-03-28T18:36:21.141Z,11.43
2019-03-28T18:41:28.534Z,9.65
2019-03-28T18:46:35.976Z,9.78
2019-03-28T18:51:43.425Z,9.63
2019-03-28T18:56:50.900Z,9.75
2019-03-28T19:02:01.195Z,9.98
2019-03-28T19:07:11.684Z,11.50
2019-03-28T19:12:19.098Z,10.58
2019-03-28T19:17:26.538Z,10.63
2019-03-28T19:22:33.821Z,10.58
2019-03-28T19:27:41.554Z,10.55
2019-03-28T19:32:48.949Z,10.18
2019-03-28T19:37:57.263Z,10.60
2019-03-28T19:43:19.291Z,11.57
2019-03-28T19:48:14.980Z,11.03
2019-03-28T19:53:22.339Z,13.08
2019-03-28T19:58:30.915Z,12.37
2019-03-28T20:03:38.603Z,12.60
2019-03-28T20:08:45.938Z,12.93
2019-03-28T20:13:53.349Z,13.95
2019-03-28T20:19:01.354Z,13.48
2019-03-28T20:24:09.618Z,11.48
2019-03-28T20:29:16.991Z,13.00
2019-03-28T20:34:24.449Z,12.03
2019-03-28T20:39:32.832Z,12.28
2019-03-28T20:44:42.359Z,13.32
2019-03-28T20:49:49.728Z,13.20
2019-03-28T20:54:57.471Z,13.58
2019-03-28T21:00:08.310Z,12.20
2019-03-28T21:05:14.795Z,12.70
2019-03-28T21:10:26.916Z,14.38
2019-03-28T21:15:34.371Z,12.13
2019-03-28T21:20:41.802Z,13.48
2019-03-28T21:25:49.306Z,12.28
2019-03-28T21:30:59.039Z,10.95
2019-03-28T21:36:06.225Z,11.90
2019-03-28T21:41:13.701Z,12.00
2019-03-28T21:46:21.057Z,11.78
2019-03-28T21:51:28.323Z,11.85
2019-03-28T21:56:35.516Z,12.68
2019-03-28T22:01:42.867Z,12.78
2019-03-28T22:06:50.303Z,12.35
2019-03-28T22:12:00.575Z,13.68
2019-03-28T22:17:06.966Z,11.38
2019-03-28T22:22:14.227Z,11.55
2019-03-28T22:27:21.675Z,10.85
2019-03-28T22:32:30.202Z,10.90
2019-03-28T22:37:37.550Z,10.40
2019-03-28T22:42:44.829Z,10.72
2019-03-28T22:47:52.199Z,10.65
2019-03-28T22:52:59.551Z,10.88
2019-03-28T22:58:08.071Z,10.72
2019-03-28T23:03:18.204Z,10.40
2019-03-28T23:08:25.539Z,10.18
2019-03-28T23:13:32.925Z,12.00
2019-03-28T23:18:40.280Z,11.83
2019-03-28T23:23:47.647Z,11.70
2019-03-28T23:28:54.993Z,12.40
2019-03-28T23:34:02.453Z,10.80
2019-03-28T23:39:10.310Z,10.23
2019-03-28T23:44:17.677Z,10.78
2019-03-28T23:49:25.110Z,10.00
2019-03-28T23:54:32.530Z,12.80
2019-03-28T23:59:40.095Z,13.38
